sensor_id;sensor_type;location;lat;lon;timestamp;P1;durP1;ratioP1;P2;durP2;ratioP2
30303;SDS011;17112;48.636;10.152;2023-10-08T00:01:43;10.75;;;5.10;;
30303;SDS011;17112;48.636;10.152;2023-10-08T00:04:09;10.52;;;4.68;;
30303;SDS011;17112;48.636;10.152;2023-10-08T00:06:43;8.73;;;5.13;;
30303;SDS011;17112;48.636;10.152;2023-10-08T00:09:11;11.48;;;4.97;;
30303;SDS011;17112;48.636;10.152;2023-10-08T00:11:37;8.63;;;4.57;;
30303;SDS011;17112;48.636;10.152;2023-10-08T00:14:05;11.32;;;5.25;;
30303;SDS011;17112;48.636;10.152;2023-10-08T00:16:36;7.82;;;4.63;;
30303;SDS011;17112;48.636;10.152;2023-10-08T00:19:05;12.73;;;5.10;;
30303;SDS011;17112;48.636;10.152;2023-10-08T00:21:36;9.77;;;5.00;;
30303;SDS011;17112;48.636;10.152;2023-10-08T00:24:03;12.70;;;5.10;;
30303;SDS011;17112;48.636;10.152;2023-10-08T00:26:32;13.00;;;5.45;;
30303;SDS011;17112;48.636;10.152;2023-10-08T00:29:01;10.00;;;4.95;;
30303;SDS011;17112;48.636;10.152;2023-10-08T00:31:46;10.93;;;4.82;;
30303;SDS011;17112;48.636;10.152;2023-10-08T00:34:14;7.72;;;4.55;;
30303;SDS011;17112;48.636;10.152;2023-10-08T00:36:47;8.75;;;5.32;;
30303;SDS011;17112;48.636;10.152;2023-10-08T00:39:13;11.48;;;5.10;;
30303;SDS011;17112;48.636;10.152;2023-10-08T00:41:41;14.85;;;5.40;;
30303;SDS011;17112;48.636;10.152;2023-10-08T00:44:11;12.80;;;5.25;;
30303;SDS011;17112;48.636;10.152;2023-10-08T00:46:39;12.43;;;4.95;;
30303;SDS011;17112;48.636;10.152;2023-10-08T00:49:12;15.50;;;5.47;;
30303;SDS011;17112;48.636;10.152;2023-10-08T00:51:53;10.80;;;5.40;;
30303;SDS011;17112;48.636;10.152;2023-10-08T00:54:32;11.10;;;5.13;;
30303;SDS011;17112;48.636;10.152;2023-10-08T00:56:58;9.85;;;5.15;;
30303;SDS011;17112;48.636;10.152;2023-10-08T00:59:29;8.98;;;5.15;;
30303;SDS011;17112;48.636;10.152;2023-10-08T01:02:06;12.25;;;5.38;;
30303;SDS011;17112;48.636;10.152;2023-10-08T01:04:33;10.65;;;5.63;;
30303;SDS011;17112;48.636;10.152;2023-10-08T01:07:00;7.88;;;5.03;;
30303;SDS011;17112;48.636;10.152;2023-10-08T01:09:37;10.43;;;5.15;;
30303;SDS011;17112;48.636;10.152;2023-10-08T01:14:36;10.65;;;5.18;;
30303;SDS011;17112;48.636;10.152;2023-10-08T01:17:02;11.85;;;5.50;;
30303;SDS011;17112;48.636;10.152;2023-10-08T01:19:30;10.45;;;5.10;;
30303;SDS011;17112;48.636;10.152;2023-10-08T01:21:56;10.65;;;5.05;;
30303;SDS011;17112;48.636;10.152;2023-10-08T01:24:24;11.88;;;4.97;;
30303;SDS011;17112;48.636;10.152;2023-10-08T01:26:52;8.60;;;4.57;;
30303;SDS011;17112;48.636;10.152;2023-10-08T01:29:18;8.95;;;4.85;;
30303;SDS011;17112;48.636;10.152;2023-10-08T01:31:46;11.07;;;4.63;;
30303;SDS011;17112;48.636;10.152;2023-10-08T01:34:14;8.73;;;4.30;;
30303;SDS011;17112;48.636;10.152;2023-10-08T01:36:42;8.63;;;4.78;;
30303;SDS011;17112;48.636;10.152;2023-10-08T01:39:09;12.48;;;5.68;;
30303;SDS011;17112;48.636;10.152;2023-10-08T01:41:42;9.85;;;4.93;;
30303;SDS011;17112;48.636;10.152;2023-10-08T01:44:08;13.70;;;4.95;;
30303;SDS011;17112;48.636;10.152;2023-10-08T01:46:34;11.52;;;5.15;;
30303;SDS011;17112;48.636;10.152;2023-10-08T01:49:01;12.85;;;5.38;;
30303;SDS011;17112;48.636;10.152;2023-10-08T01:51:33;9.88;;;4.78;;
30303;SDS011;17112;48.636;10.152;2023-10-08T01:54:03;8.82;;;4.88;;
30303;SDS011;17112;48.636;10.152;2023-10-08T01:56:39;10.27;;;5.07;;
30303;SDS011;17112;48.636;10.152;2023-10-08T01:59:12;9.32;;;5.25;;
30303;SDS011;17112;48.636;10.152;2023-10-08T02:01:40;7.72;;;4.68;;
30303;SDS011;17112;48.636;10.152;2023-10-08T02:04:08;11.82;;;4.97;;
30303;SDS011;17112;48.636;10.152;2023-10-08T02:06:35;12.43;;;5.20;;
30303;SDS011;17112;48.636;10.152;2023-10-08T02:09:01;9.35;;;4.97;;
30303;SDS011;17112;48.636;10.152;2023-10-08T02:11:46;11.25;;;4.65;;
30303;SDS011;17112;48.636;10.152;2023-10-08T02:14:19;12.45;;;4.97;;
30303;SDS011;17112;48.636;10.152;2023-10-08T02:16:45;12.20;;;4.85;;
30303;SDS011;17112;48.636;10.152;2023-10-08T02:19:12;10.65;;;5.22;;
30303;SDS011;17112;48.636;10.152;2023-10-08T02:21:39;9.00;;;5.03;;
30303;SDS011;17112;48.636;10.152;2023-10-08T02:24:05;11.15;;;4.82;;
30303;SDS011;17112;48.636;10.152;2023-10-08T02:26:32;7.32;;;4.50;;
30303;SDS011;17112;48.636;10.152;2023-10-08T02:29:01;9.95;;;4.72;;
30303;SDS011;17112;48.636;10.152;2023-10-08T02:31:26;9.15;;;4.57;;
30303;SDS011;17112;48.636;10.152;2023-10-08T02:33:53;9.00;;;5.20;;
30303;SDS011;17112;48.636;10.152;2023-10-08T02:36:19;6.43;;;4.07;;
30303;SDS011;17112;48.636;10.152;2023-10-08T02:38:44;10.07;;;5.13;;
30303;SDS011;17112;48.636;10.152;2023-10-08T02:41:15;15.50;;;4.57;;
30303;SDS011;17112;48.636;10.152;2023-10-08T02:43:42;10.10;;;4.63;;
30303;SDS011;17112;48.636;10.152;2023-10-08T02:46:09;9.95;;;4.72;;
30303;SDS011;17112;48.636;10.152;2023-10-08T02:48:40;10.88;;;4.25;;
30303;SDS011;17112;48.636;10.152;2023-10-08T02:51:06;8.70;;;4.68;;
30303;SDS011;17112;48.636;10.152;2023-10-08T02:53:41;9.73;;;4.38;;
30303;SDS011;17112;48.636;10.152;2023-10-08T02:56:08;11.18;;;4.85;;
30303;SDS011;17112;48.636;10.152;2023-10-08T02:58:38;9.45;;;4.57;;
30303;SDS011;17112;48.636;10.152;2023-10-08T03:01:05;12.13;;;5.50;;
30303;SDS011;17112;48.636;10.152;2023-10-08T03:03:32;8.35;;;4.22;;
30303;SDS011;17112;48.636;10.152;2023-10-08T03:05:57;9.35;;;4.60;;
30303;SDS011;17112;48.636;10.152;2023-10-08T03:08:23;10.52;;;4.95;;
30303;SDS011;17112;48.636;10.152;2023-10-08T03:10:52;8.77;;;4.70;;
30303;SDS011;17112;48.636;10.152;2023-10-08T03:13:21;9.45;;;4.15;;
30303;SDS011;17112;48.636;10.152;2023-10-08T03:15:47;9.52;;;4.55;;
30303;SDS011;17112;48.636;10.152;2023-10-08T03:18:32;9.27;;;4.20;;
30303;SDS011;17112;48.636;10.152;2023-10-08T03:21:06;10.05;;;4.00;;
30303;SDS011;17112;48.636;10.152;2023-10-08T03:24:07;8.10;;;3.95;;
30303;SDS011;17112;48.636;10.152;2023-10-08T03:26:55;11.77;;;4.40;;
30303;SDS011;17112;48.636;10.152;2023-10-08T03:29:46;8.52;;;4.22;;
30303;SDS011;17112;48.636;10.152;2023-10-08T03:32:12;6.95;;;4.05;;
30303;SDS011;17112;48.636;10.152;2023-10-08T03:34:45;6.72;;;3.88;;
30303;SDS011;17112;48.636;10.152;2023-10-08T03:37:15;6.95;;;3.92;;
30303;SDS011;17112;48.636;10.152;2023-10-08T03:39:47;7.45;;;3.97;;
30303;SDS011;17112;48.636;10.152;2023-10-08T03:42:20;6.88;;;3.90;;
30303;SDS011;17112;48.636;10.152;2023-10-08T03:44:49;8.02;;;3.85;;
30303;SDS011;17112;48.636;10.152;2023-10-08T03:47:23;7.00;;;3.55;;
30303;SDS011;17112;48.636;10.152;2023-10-08T03:49:51;8.35;;;4.15;;
30303;SDS011;17112;48.636;10.152;2023-10-08T03:52:19;8.57;;;4.32;;
30303;SDS011;17112;48.636;10.152;2023-10-08T03:54:50;8.57;;;3.80;;
30303;SDS011;17112;48.636;10.152;2023-10-08T03:57:35;8.52;;;3.78;;
30303;SDS011;17112;48.636;10.152;2023-10-08T04:00:09;7.57;;;3.78;;
30303;SDS011;17112;48.636;10.152;2023-10-08T04:02:44;9.63;;;4.50;;
30303;SDS011;17112;48.636;10.152;2023-10-08T04:05:23;8.02;;;4.85;;
30303;SDS011;17112;48.636;10.152;2023-10-08T04:07:57;10.95;;;4.68;;
30303;SDS011;17112;48.636;10.152;2023-10-08T04:10:28;7.15;;;3.97;;
30303;SDS011;17112;48.636;10.152;2023-10-08T04:13:07;10.18;;;4.22;;
30303;SDS011;17112;48.636;10.152;2023-10-08T04:15:40;7.40;;;3.90;;
30303;SDS011;17112;48.636;10.152;2023-10-08T04:18:08;12.13;;;4.47;;
30303;SDS011;17112;48.636;10.152;2023-10-08T04:20:35;10.63;;;4.07;;
30303;SDS011;17112;48.636;10.152;2023-10-08T04:23:05;9.13;;;4.30;;
30303;SDS011;17112;48.636;10.152;2023-10-08T04:25:43;14.55;;;4.28;;
30303;SDS011;17112;48.636;10.152;2023-10-08T04:28:08;8.10;;;4.07;;
30303;SDS011;17112;48.636;10.152;2023-10-08T04:30:39;15.00;;;4.10;;
30303;SDS011;17112;48.636;10.152;2023-10-08T04:33:07;11.10;;;3.95;;
30303;SDS011;17112;48.636;10.152;2023-10-08T04:35:37;7.88;;;4.15;;
30303;SDS011;17112;48.636;10.152;2023-10-08T04:38:21;11.07;;;3.85;;
30303;SDS011;17112;48.636;10.152;2023-10-08T04:41:04;10.98;;;3.58;;
30303;SDS011;17112;48.636;10.152;2023-10-08T04:43:34;12.68;;;3.30;;
30303;SDS011;17112;48.636;10.152;2023-10-08T04:46:03;12.23;;;3.70;;
30303;SDS011;17112;48.636;10.152;2023-10-08T04:48:47;9.40;;;3.47;;
30303;SDS011;17112;48.636;10.152;2023-10-08T04:51:14;10.18;;;3.25;;
30303;SDS011;17112;48.636;10.152;2023-10-08T04:53:43;10.82;;;4.05;;
30303;SDS011;17112;48.636;10.152;2023-10-08T04:56:11;8.13;;;3.88;;
30303;SDS011;17112;48.636;10.152;2023-10-08T04:58:46;8.93;;;3.70;;
30303;SDS011;17112;48.636;10.152;2023-10-08T05:01:13;10.38;;;3.53;;
30303;SDS011;17112;48.636;10.152;2023-10-08T05:03:45;11.20;;;3.85;;
30303;SDS011;17112;48.636;10.152;2023-10-08T05:06:25;12.65;;;3.75;;
30303;SDS011;17112;48.636;10.152;2023-10-08T05:09:17;12.35;;;3.83;;
30303;SDS011;17112;48.636;10.152;2023-10-08T05:11:43;8.25;;;3.67;;
30303;SDS011;17112;48.636;10.152;2023-10-08T05:14:15;17.55;;;4.35;;
30303;SDS011;17112;48.636;10.152;2023-10-08T05:16:55;9.40;;;4.10;;
30303;SDS011;17112;48.636;10.152;2023-10-08T05:19:47;8.85;;;3.95;;
30303;SDS011;17112;48.636;10.152;2023-10-08T05:22:31;8.82;;;3.60;;
30303;SDS011;17112;48.636;10.152;2023-10-08T05:24:58;10.00;;;3.63;;
30303;SDS011;17112;48.636;10.152;2023-10-08T05:27:43;7.80;;;3.33;;
30303;SDS011;17112;48.636;10.152;2023-10-08T05:30:22;15.82;;;3.88;;
30303;SDS011;17112;48.636;10.152;2023-10-08T05:33:01;7.03;;;3.42;;
30303;SDS011;17112;48.636;10.152;2023-10-08T05:35:36;13.27;;;3.70;;
30303;SDS011;17112;48.636;10.152;2023-10-08T05:38:06;10.93;;;3.65;;
30303;SDS011;17112;48.636;10.152;2023-10-08T05:40:47;9.30;;;3.30;;
30303;SDS011;17112;48.636;10.152;2023-10-08T05:43:39;7.20;;;3.40;;
30303;SDS011;17112;48.636;10.152;2023-10-08T05:46:05;12.77;;;3.70;;
30303;SDS011;17112;48.636;10.152;2023-10-08T05:49:04;9.35;;;3.65;;
30303;SDS011;17112;48.636;10.152;2023-10-08T05:54:20;9.77;;;4.00;;
30303;SDS011;17112;48.636;10.152;2023-10-08T05:57:10;14.50;;;4.82;;
30303;SDS011;17112;48.636;10.152;2023-10-08T05:59:36;13.30;;;4.70;;
30303;SDS011;17112;48.636;10.152;2023-10-08T06:04:58;13.07;;;5.20;;
30303;SDS011;17112;48.636;10.152;2023-10-08T06:07:46;10.38;;;5.30;;
30303;SDS011;17112;48.636;10.152;2023-10-08T06:10:22;9.80;;;5.05;;
30303;SDS011;17112;48.636;10.152;2023-10-08T06:13:03;11.35;;;5.57;;
30303;SDS011;17112;48.636;10.152;2023-10-08T06:18:20;12.57;;;5.82;;
30303;SDS011;17112;48.636;10.152;2023-10-08T06:20:55;11.13;;;5.00;;
30303;SDS011;17112;48.636;10.152;2023-10-08T06:23:35;12.35;;;5.47;;
30303;SDS011;17112;48.636;10.152;2023-10-08T06:26:02;12.23;;;5.63;;
30303;SDS011;17112;48.636;10.152;2023-10-08T06:28:34;11.60;;;5.47;;
30303;SDS011;17112;48.636;10.152;2023-10-08T06:31:00;13.57;;;5.47;;
30303;SDS011;17112;48.636;10.152;2023-10-08T06:33:31;11.23;;;5.07;;
30303;SDS011;17112;48.636;10.152;2023-10-08T06:35:58;16.42;;;5.43;;
30303;SDS011;17112;48.636;10.152;2023-10-08T06:38:30;11.88;;;5.65;;
30303;SDS011;17112;48.636;10.152;2023-10-08T06:40:59;14.52;;;4.88;;
30303;SDS011;17112;48.636;10.152;2023-10-08T06:43:33;11.60;;;4.75;;
30303;SDS011;17112;48.636;10.152;2023-10-08T06:46:02;14.88;;;4.93;;
30303;SDS011;17112;48.636;10.152;2023-10-08T06:48:29;10.15;;;5.50;;
30303;SDS011;17112;48.636;10.152;2023-10-08T06:50:55;11.70;;;5.38;;
30303;SDS011;17112;48.636;10.152;2023-10-08T06:53:32;9.40;;;4.22;;
30303;SDS011;17112;48.636;10.152;2023-10-08T06:55:59;12.00;;;4.93;;
30303;SDS011;17112;48.636;10.152;2023-10-08T06:58:29;8.85;;;4.43;;
30303;SDS011;17112;48.636;10.152;2023-10-08T07:00:58;9.57;;;4.22;;
30303;SDS011;17112;48.636;10.152;2023-10-08T07:03:29;11.15;;;4.45;;
30303;SDS011;17112;48.636;10.152;2023-10-08T07:05:56;11.10;;;4.68;;
30303;SDS011;17112;48.636;10.152;2023-10-08T07:08:28;11.82;;;4.43;;
30303;SDS011;17112;48.636;10.152;2023-10-08T07:10:59;10.57;;;4.35;;
30303;SDS011;17112;48.636;10.152;2023-10-08T07:13:26;10.27;;;4.15;;
30303;SDS011;17112;48.636;10.152;2023-10-08T07:15:55;12.85;;;4.28;;
30303;SDS011;17112;48.636;10.152;2023-10-08T07:18:21;10.77;;;4.07;;
30303;SDS011;17112;48.636;10.152;2023-10-08T07:20:50;11.18;;;4.72;;
30303;SDS011;17112;48.636;10.152;2023-10-08T07:23:21;14.00;;;4.15;;
30303;SDS011;17112;48.636;10.152;2023-10-08T07:25:54;14.40;;;4.40;;
30303;SDS011;17112;48.636;10.152;2023-10-08T07:28:39;9.77;;;4.35;;
30303;SDS011;17112;48.636;10.152;2023-10-08T07:31:12;13.43;;;4.68;;
30303;SDS011;17112;48.636;10.152;2023-10-08T07:33:43;13.40;;;4.57;;
30303;SDS011;17112;48.636;10.152;2023-10-08T07:36:13;9.70;;;5.13;;
30303;SDS011;17112;48.636;10.152;2023-10-08T07:38:46;18.83;;;5.13;;
30303;SDS011;17112;48.636;10.152;2023-10-08T07:41:12;11.10;;;5.00;;
30303;SDS011;17112;48.636;10.152;2023-10-08T07:43:39;12.80;;;6.07;;
30303;SDS011;17112;48.636;10.152;2023-10-08T07:46:09;14.13;;;5.32;;
30303;SDS011;17112;48.636;10.152;2023-10-08T07:48:38;11.68;;;4.53;;
30303;SDS011;17112;48.636;10.152;2023-10-08T07:51:09;14.00;;;4.55;;
30303;SDS011;17112;48.636;10.152;2023-10-08T07:53:35;18.25;;;4.03;;
30303;SDS011;17112;48.636;10.152;2023-10-08T07:56:07;10.55;;;4.60;;
30303;SDS011;17112;48.636;10.152;2023-10-08T07:58:34;10.32;;;4.57;;
30303;SDS011;17112;48.636;10.152;2023-10-08T08:01:03;14.35;;;4.32;;
30303;SDS011;17112;48.636;10.152;2023-10-08T08:03:31;13.88;;;4.80;;
30303;SDS011;17112;48.636;10.152;2023-10-08T08:06:04;16.00;;;4.63;;
30303;SDS011;17112;48.636;10.152;2023-10-08T08:08:31;13.55;;;4.35;;
30303;SDS011;17112;48.636;10.152;2023-10-08T08:10:59;12.75;;;4.05;;
30303;SDS011;17112;48.636;10.152;2023-10-08T08:13:37;13.13;;;4.43;;
30303;SDS011;17112;48.636;10.152;2023-10-08T08:16:10;14.85;;;5.03;;
30303;SDS011;17112;48.636;10.152;2023-10-08T08:21:13;14.73;;;4.57;;
30303;SDS011;17112;48.636;10.152;2023-10-08T08:23:41;16.60;;;5.00;;
30303;SDS011;17112;48.636;10.152;2023-10-08T08:26:13;17.38;;;4.53;;
30303;SDS011;17112;48.636;10.152;2023-10-08T08:28:59;17.48;;;5.35;;
30303;SDS011;17112;48.636;10.152;2023-10-08T08:31:27;14.85;;;5.10;;
30303;SDS011;17112;48.636;10.152;2023-10-08T08:33:57;13.30;;;5.30;;
30303;SDS011;17112;48.636;10.152;2023-10-08T08:36:35;17.63;;;5.38;;
30303;SDS011;17112;48.636;10.152;2023-10-08T08:39:04;12.65;;;4.93;;
30303;SDS011;17112;48.636;10.152;2023-10-08T08:41:36;13.88;;;5.05;;
30303;SDS011;17112;48.636;10.152;2023-10-08T08:44:05;12.68;;;4.70;;
30303;SDS011;17112;48.636;10.152;2023-10-08T08:49:00;9.95;;;4.20;;
30303;SDS011;17112;48.636;10.152;2023-10-08T08:51:29;13.32;;;4.82;;
30303;SDS011;17112;48.636;10.152;2023-10-08T08:53:56;12.90;;;4.82;;
30303;SDS011;17112;48.636;10.152;2023-10-08T08:56:25;17.50;;;5.38;;
30303;SDS011;17112;48.636;10.152;2023-10-08T08:58:54;9.05;;;3.90;;
30303;SDS011;17112;48.636;10.152;2023-10-08T09:01:21;7.75;;;3.45;;
30303;SDS011;17112;48.636;10.152;2023-10-08T09:03:48;11.52;;;4.53;;
30303;SDS011;17112;48.636;10.152;2023-10-08T09:06:15;13.32;;;5.82;;
30303;SDS011;17112;48.636;10.152;2023-10-08T09:08:41;21.92;;;13.55;;
30303;SDS011;17112;48.636;10.152;2023-10-08T09:11:13;13.75;;;7.45;;
30303;SDS011;17112;48.636;10.152;2023-10-08T09:13:40;16.27;;;6.13;;
30303;SDS011;17112;48.636;10.152;2023-10-08T09:18:33;14.10;;;5.20;;
30303;SDS011;17112;48.636;10.152;2023-10-08T09:21:15;13.45;;;4.40;;
30303;SDS011;17112;48.636;10.152;2023-10-08T09:23:50;10.55;;;4.05;;
30303;SDS011;17112;48.636;10.152;2023-10-08T09:26:22;8.15;;;3.70;;
30303;SDS011;17112;48.636;10.152;2023-10-08T09:28:48;14.77;;;3.72;;
30303;SDS011;17112;48.636;10.152;2023-10-08T09:31:16;8.65;;;2.92;;
30303;SDS011;17112;48.636;10.152;2023-10-08T09:33:54;9.23;;;3.53;;
30303;SDS011;17112;48.636;10.152;2023-10-08T09:36:20;18.88;;;3.80;;
30303;SDS011;17112;48.636;10.152;2023-10-08T09:38:58;9.57;;;3.60;;
30303;SDS011;17112;48.636;10.152;2023-10-08T09:41:31;10.23;;;3.35;;
30303;SDS011;17112;48.636;10.152;2023-10-08T09:43:58;11.48;;;3.60;;
30303;SDS011;17112;48.636;10.152;2023-10-08T09:46:29;13.23;;;4.10;;
30303;SDS011;17112;48.636;10.152;2023-10-08T09:48:59;10.13;;;3.97;;
30303;SDS011;17112;48.636;10.152;2023-10-08T09:51:26;12.48;;;3.75;;
30303;SDS011;17112;48.636;10.152;2023-10-08T09:56:39;6.57;;;3.20;;
30303;SDS011;17112;48.636;10.152;2023-10-08T09:59:05;10.60;;;3.70;;
30303;SDS011;17112;48.636;10.152;2023-10-08T10:01:34;13.85;;;4.20;;
30303;SDS011;17112;48.636;10.152;2023-10-08T10:04:05;12.32;;;3.65;;
30303;SDS011;17112;48.636;10.152;2023-10-08T10:06:35;8.70;;;3.80;;
30303;SDS011;17112;48.636;10.152;2023-10-08T10:09:01;8.85;;;3.30;;
30303;SDS011;17112;48.636;10.152;2023-10-08T10:11:28;10.95;;;4.55;;
30303;SDS011;17112;48.636;10.152;2023-10-08T10:13:58;8.30;;;3.60;;
30303;SDS011;17112;48.636;10.152;2023-10-08T10:16:25;9.95;;;3.78;;
30303;SDS011;17112;48.636;10.152;2023-10-08T10:18:57;8.45;;;4.10;;
30303;SDS011;17112;48.636;10.152;2023-10-08T10:21:25;13.32;;;3.80;;
30303;SDS011;17112;48.636;10.152;2023-10-08T10:23:52;12.85;;;4.82;;
30303;SDS011;17112;48.636;10.152;2023-10-08T10:31:36;8.05;;;3.65;;
30303;SDS011;17112;48.636;10.152;2023-10-08T10:34:22;9.68;;;3.97;;
30303;SDS011;17112;48.636;10.152;2023-10-08T10:36:51;11.07;;;3.33;;
30303;SDS011;17112;48.636;10.152;2023-10-08T10:39:22;11.93;;;3.70;;
30303;SDS011;17112;48.636;10.152;2023-10-08T10:41:52;16.45;;;3.67;;
30303;SDS011;17112;48.636;10.152;2023-10-08T10:44:31;12.57;;;3.35;;
30303;SDS011;17112;48.636;10.152;2023-10-08T10:46:59;9.60;;;3.53;;
30303;SDS011;17112;48.636;10.152;2023-10-08T10:49:40;11.07;;;3.45;;
30303;SDS011;17112;48.636;10.152;2023-10-08T10:52:28;11.48;;;4.57;;
30303;SDS011;17112;48.636;10.152;2023-10-08T10:55:06;13.43;;;4.15;;
